Time;durP1;ratioP1;P1;durP2;ratioP2;P2;SDS_P1;SDS_P2;PMS_P1;PMS_P2;Temp;Humidity;BMP_temperature;BMP_pressure;BME280_temperature;BME280_humidity;BME280_pressure;Samples;Min_cycle;Max_cycle;Signal;HPM_P1;HPM_P2
2022/03/31 00:00:56;;;;;;;31.13;18.63;;;5.30;99.90;;;;;;5047551;28;20223;-53
2022/03/31 00:03:25;;;;;;;27.67;18.70;;;5.30;99.90;;;;;;5050009;28;20209;-53
2022/03/31 00:05:53;;;;;;;25.93;16.77;;;5.30;99.90;;;;;;5050589;28;20258;-53
2022/03/31 00:08:22;;;;;;;23.63;14.20;;;5.30;99.90;;;;;;5049032;28;20204;-52
2022/03/31 00:10:53;;;;;;;28.30;17.07;;;5.20;99.90;;;;;;5050999;28;20667;-52
2022/03/31 00:13:23;;;;;;;26.93;17.33;;;5.20;99.90;;;;;;5030322;28;20608;-52
2022/03/31 00:15:51;;;;;;;31.23;20.87;;;5.20;99.90;;;;;;5031092;28;20228;-52
2022/03/31 00:18:20;;;;;;;24.23;16.87;;;5.10;99.90;;;;;;5030790;28;20213;-52
2022/03/31 00:20:48;;;;;;;24.03;14.77;;;5.00;99.90;;;;;;5050957;28;20263;-53
2022/03/31 00:23:16;;;;;;;24.80;15.67;;;5.00;99.90;;;;;;5049986;28;20607;-52
2022/03/31 00:25:44;;;;;;;23.87;14.73;;;4.90;99.90;;;;;;5050753;28;20669;-52
2022/03/31 00:28:14;;;;;;;27.67;17.20;;;4.90;99.90;;;;;;5050638;28;20264;-52
2022/03/31 00:30:42;;;;;;;25.07;14.10;;;4.90;99.90;;;;;;5049900;28;20224;-53
2022/03/31 00:33:10;;;;;;;26.93;17.03;;;4.90;99.90;;;;;;5050367;28;20221;-52
2022/03/31 00:35:38;;;;;;;27.80;17.77;;;4.80;99.90;;;;;;5049699;28;20224;-53
2022/03/31 00:38:07;;;;;;;21.70;13.67;;;4.70;99.90;;;;;;5050974;28;20206;-52
2022/03/31 00:40:35;;;;;;;27.73;17.20;;;4.70;99.90;;;;;;5050101;28;20251;-53
2022/03/31 00:43:04;;;;;;;32.87;18.70;;;4.70;99.90;;;;;;5050145;28;20201;-53
2022/03/31 00:45:46;;;;;;;31.57;18.80;;;4.70;99.90;;;;;;5050460;28;20262;-53
2022/03/31 00:48:16;;;;;;;27.53;18.67;;;4.70;99.90;;;;;;5054369;28;20201;-53
2022/03/31 00:50:44;;;;;;;29.50;18.77;;;4.50;99.90;;;;;;5054051;28;20208;-52
2022/03/31 00:53:12;;;;;;;31.03;18.67;;;4.40;99.90;;;;;;5054118;28;20269;-52
2022/03/31 00:55:56;;;;;;;27.10;17.53;;;4.30;99.90;;;;;;5054494;28;20572;-52
2022/03/31 00:58:24;;;;;;;27.93;16.37;;;4.20;99.90;;;;;;5054297;28;20212;-52
2022/03/31 01:00:53;;;;;;;23.40;14.93;;;4.10;99.90;;;;;;5053274;28;20220;-52
2022/03/31 01:03:22;;;;;;;25.17;15.23;;;4.10;99.90;;;;;;5033841;28;20307;-52
2022/03/31 01:05:50;;;;;;;25.60;14.43;;;4.20;99.90;;;;;;5034016;28;20210;-52
2022/03/31 01:08:19;;;;;;;21.07;13.33;;;4.20;99.90;;;;;;5037691;28;20198;-53
2022/03/31 01:10:49;;;;;;;22.90;13.17;;;4.20;99.90;;;;;;5054166;28;20209;-52
2022/03/31 01:13:17;;;;;;;24.07;13.47;;;4.30;99.90;;;;;;5033390;28;20240;-52
2022/03/31 01:15:45;;;;;;;24.30;13.70;;;4.30;99.90;;;;;;5033906;28;20703;-52
2022/03/31 01:18:15;;;;;;;22.90;13.23;;;4.30;99.90;;;;;;5033925;28;20211;-53
2022/03/31 01:20:43;;;;;;;22.80;15.17;;;4.30;99.90;;;;;;5053619;28;20216;-52
2022/03/31 01:23:14;;;;;;;23.77;13.87;;;4.30;99.90;;;;;;5053307;28;20207;-52
2022/03/31 01:25:42;;;;;;;23.47;14.53;;;4.30;99.90;;;;;;5053892;28;20360;-53
2022/03/31 01:28:11;;;;;;;21.57;14.33;;;4.30;99.90;;;;;;5053955;28;20208;-52
2022/03/31 01:30:39;;;;;;;24.03;14.57;;;4.20;99.90;;;;;;5052618;28;20208;-52
2022/03/31 01:33:08;;;;;;;25.03;15.17;;;4.20;99.90;;;;;;5053400;28;20211;-52
2022/03/31 01:35:36;;;;;;;24.80;15.03;;;4.30;99.90;;;;;;5052962;28;20221;-52
2022/03/31 01:38:04;;;;;;;24.43;13.77;;;4.30;99.90;;;;;;5053424;28;20204;-52
2022/03/31 01:40:35;;;;;;;35.57;20.73;;;4.40;99.90;;;;;;5052925;28;20232;-52
2022/03/31 01:43:03;;;;;;;31.17;18.60;;;4.40;99.90;;;;;;5052824;28;20215;-52
2022/03/31 01:45:31;;;;;;;28.33;14.53;;;4.40;99.90;;;;;;5053165;28;20202;-52
2022/03/31 01:48:04;;;;;;;30.23;16.57;;;4.40;99.90;;;;;;5053127;28;20230;-52
2022/03/31 01:50:33;;;;;;;23.70;15.03;;;4.50;99.90;;;;;;5053255;28;20232;-52
2022/03/31 01:53:01;;;;;;;27.60;15.73;;;4.50;99.90;;;;;;5052478;28;20205;-52
2022/03/31 01:55:29;;;;;;;24.83;15.30;;;4.50;99.90;;;;;;5053311;28;20215;-52
2022/03/31 01:57:58;;;;;;;28.97;15.60;;;4.50;99.90;;;;;;5052016;28;20212;-52
2022/03/31 02:00:26;;;;;;;26.67;15.30;;;4.50;99.90;;;;;;5053368;28;20283;-52
2022/03/31 02:02:55;;;;;;;25.43;15.07;;;4.50;99.90;;;;;;5052776;28;20209;-52
2022/03/31 02:05:23;;;;;;;24.67;15.50;;;4.50;99.90;;;;;;5053131;28;20214;-52
2022/03/31 02:07:54;;;;;;;25.10;16.10;;;4.50;99.90;;;;;;5052764;28;20225;-51
2022/03/31 02:10:25;;;;;;;25.73;15.93;;;4.50;99.90;;;;;;5033261;28;20288;-52
2022/03/31 02:12:54;;;;;;;27.63;17.20;;;4.40;99.90;;;;;;5032693;28;20616;-52
2022/03/31 02:15:24;;;;;;;28.37;16.37;;;4.50;99.90;;;;;;5032808;28;20589;-52
2022/03/31 02:17:55;;;;;;;27.17;16.47;;;4.40;99.90;;;;;;5033192;28;20286;-52
2022/03/31 02:20:24;;;;;;;25.93;16.20;;;4.40;99.90;;;;;;5040715;28;20721;-53
2022/03/31 02:22:52;;;;;;;29.97;17.80;;;4.40;99.90;;;;;;5052435;28;20213;-52
2022/03/31 02:25:20;;;;;;;29.50;18.00;;;4.40;99.90;;;;;;5052758;28;20683;-52
2022/03/31 02:27:51;;;;;;;28.43;17.27;;;4.30;99.90;;;;;;5053223;28;20208;-51
2022/03/31 02:30:20;;;;;;;27.87;16.63;;;4.30;99.90;;;;;;5050320;28;20240;-51
2022/03/31 02:32:50;;;;;;;30.30;18.27;;;4.30;99.90;;;;;;5052743;28;20261;-52
2022/03/31 02:35:18;;;;;;;28.63;18.47;;;4.30;99.90;;;;;;5052917;28;20254;-52
2022/03/31 02:37:47;;;;;;;29.27;18.60;;;4.30;99.90;;;;;;5052757;28;20281;-52
2022/03/31 02:40:15;;;;;;;29.80;18.60;;;4.20;99.90;;;;;;5052608;28;20912;-52
2022/03/31 02:42:43;;;;;;;30.53;18.60;;;4.20;99.90;;;;;;5052195;28;20215;-52
2022/03/31 02:45:11;;;;;;;33.40;21.13;;;4.20;99.90;;;;;;5052298;28;20237;-52
2022/03/31 02:47:40;;;;;;;31.57;20.30;;;4.10;99.90;;;;;;5052450;28;20199;-52
2022/03/31 02:50:10;;;;;;;37.53;22.10;;;4.10;99.90;;;;;;5052302;28;20370;-52
2022/03/31 02:55:28;;;;;;;32.33;21.10;;;4.10;99.90;;;;;;5052559;28;20199;-53
2022/03/31 02:58:00;;;;;;;35.57;22.47;;;4.10;99.90;;;;;;5034347;28;20251;-52
2022/03/31 03:00:30;;;;;;;36.87;22.50;;;4.00;99.90;;;;;;5046979;28;20271;-52
2022/03/31 03:02:59;;;;;;;34.87;21.57;;;4.10;99.90;;;;;;5051881;28;20216;-52
2022/03/31 03:05:29;;;;;;;37.47;22.90;;;4.00;99.90;;;;;;5051741;28;20279;-52
2022/03/31 03:07:57;;;;;;;34.60;22.17;;;3.90;99.90;;;;;;5052308;28;20257;-52
2022/03/31 03:10:25;;;;;;;36.10;22.57;;;3.90;99.90;;;;;;5051359;28;20273;-52
2022/03/31 03:12:55;;;;;;;39.13;23.27;;;3.90;99.90;;;;;;5051696;28;20269;-51
2022/03/31 03:15:24;;;;;;;35.63;21.77;;;3.80;99.90;;;;;;5051853;28;20215;-52
2022/03/31 03:17:53;;;;;;;40.40;23.57;;;3.90;99.90;;;;;;5052135;28;20225;-52
2022/03/31 03:20:24;;;;;;;38.70;23.57;;;3.80;99.90;;;;;;5051743;28;20235;-52
2022/03/31 03:22:55;;;;;;;41.03;24.57;;;3.90;99.90;;;;;;5051485;28;20205;-52
2022/03/31 03:25:23;;;;;;;39.03;23.53;;;3.90;99.90;;;;;;5051554;28;20213;-52
2022/03/31 03:27:52;;;;;;;39.63;24.70;;;3.90;99.90;;;;;;5051614;28;20207;-52
2022/03/31 03:30:21;;;;;;;36.83;23.80;;;3.90;99.90;;;;;;5049889;28;20284;-53
2022/03/31 03:32:50;;;;;;;37.40;23.03;;;3.80;99.90;;;;;;5051226;28;20236;-52
2022/03/31 03:35:18;;;;;;;41.47;24.90;;;3.80;99.90;;;;;;5051640;28;20259;-52
2022/03/31 03:37:47;;;;;;;41.57;25.47;;;3.80;99.90;;;;;;5051515;28;20228;-52
2022/03/31 03:40:17;;;;;;;39.43;26.00;;;3.80;99.90;;;;;;5051389;28;20227;-52
2022/03/31 03:42:45;;;;;;;41.47;25.97;;;3.70;99.90;;;;;;5050836;28;20206;-53
2022/03/31 03:45:14;;;;;;;40.77;26.37;;;3.70;99.90;;;;;;5051489;28;20211;-52
2022/03/31 03:47:43;;;;;;;39.83;25.97;;;3.70;99.90;;;;;;5051404;28;20205;-52
2022/03/31 03:50:11;;;;;;;42.13;25.97;;;3.60;99.90;;;;;;5051588;28;20370;-52
2022/03/31 03:52:40;;;;;;;43.70;26.03;;;3.60;99.90;;;;;;5050657;28;20204;-52
2022/03/31 03:55:09;;;;;;;39.37;24.97;;;3.60;99.90;;;;;;5049409;28;20211;-52
2022/03/31 03:57:39;;;;;;;41.20;25.47;;;3.70;99.90;;;;;;5031214;28;20641;-52
2022/03/31 04:00:09;;;;;;;41.23;24.40;;;3.70;99.90;;;;;;5043079;28;20227;-52
2022/03/31 04:02:38;;;;;;;38.87;25.57;;;3.80;99.90;;;;;;5051146;28;20217;-52
2022/03/31 04:05:08;;;;;;;40.47;26.07;;;3.90;99.90;;;;;;5050044;28;20214;-52
2022/03/31 04:07:36;;;;;;;40.27;26.10;;;4.00;99.90;;;;;;5050778;28;20267;-52
2022/03/31 04:10:04;;;;;;;42.57;25.47;;;4.00;99.90;;;;;;5050767;28;20835;-52
2022/03/31 04:12:32;;;;;;;39.10;25.13;;;4.00;99.90;;;;;;5050573;28;20264;-51
2022/03/31 04:15:04;;;;;;;36.83;23.87;;;4.00;99.90;;;;;;5051141;28;20212;-52
2022/03/31 04:17:33;;;;;;;39.90;24.60;;;4.00;99.90;;;;;;5051174;28;20242;-51
2022/03/31 04:20:02;;;;;;;36.00;23.83;;;4.10;99.90;;;;;;5050661;28;20276;-51
2022/03/31 04:22:33;;;;;;;32.40;22.07;;;4.10;99.90;;;;;;5052989;28;20214;-52
2022/03/31 04:25:01;;;;;;;37.53;24.67;;;4.20;99.90;;;;;;5055080;28;20300;-52
2022/03/31 04:27:29;;;;;;;36.80;23.50;;;4.20;99.90;;;;;;5054719;28;20205;-52
2022/03/31 04:29:58;;;;;;;33.43;22.30;;;4.20;99.90;;;;;;5054692;28;20253;-52
2022/03/31 04:32:27;;;;;;;33.67;22.90;;;4.20;99.90;;;;;;5053669;28;20755;-51
2022/03/31 04:34:55;;;;;;;33.23;23.37;;;4.30;99.90;;;;;;5054870;28;20201;-52
2022/03/31 04:37:23;;;;;;;34.27;22.80;;;4.30;99.90;;;;;;5054800;28;20232;-52
2022/03/31 04:39:51;;;;;;;37.63;23.17;;;4.30;99.90;;;;;;5055246;28;20807;-51
2022/03/31 04:42:20;;;;;;;34.13;22.50;;;4.40;99.90;;;;;;5054337;28;20208;-52
2022/03/31 04:44:48;;;;;;;32.27;21.40;;;4.40;99.90;;;;;;5054467;28;20215;-52
2022/03/31 04:47:16;;;;;;;34.67;21.13;;;4.30;99.90;;;;;;5054988;28;20232;-52
2022/03/31 04:49:46;;;;;;;31.03;21.60;;;4.30;99.90;;;;;;5054540;28;20232;-51
2022/03/31 04:52:14;;;;;;;33.17;22.23;;;4.30;99.90;;;;;;5054374;28;20257;-52
2022/03/31 04:54:44;;;;;;;31.23;21.43;;;4.30;99.90;;;;;;5053737;28;20669;-52
2022/03/31 04:57:13;;;;;;;32.27;22.40;;;4.40;99.90;;;;;;5054085;28;20677;-52
2022/03/31 04:59:41;;;;;;;33.87;21.93;;;4.40;99.90;;;;;;5054268;28;20223;-53
2022/03/31 05:02:10;;;;;;;33.20;22.20;;;4.40;99.90;;;;;;5053854;28;20212;-52
2022/03/31 05:04:39;;;;;;;35.23;24.13;;;4.50;99.90;;;;;;5054443;28;20205;-52
2022/03/31 05:07:09;;;;;;;36.17;22.60;;;4.50;99.90;;;;;;5053607;28;20695;-53
2022/03/31 05:09:38;;;;;;;37.57;24.63;;;4.50;99.90;;;;;;5053646;28;20277;-52
2022/03/31 05:12:07;;;;;;;35.00;23.37;;;4.60;99.90;;;;;;5053826;28;20209;-51
2022/03/31 05:14:35;;;;;;;33.60;23.40;;;4.60;99.90;;;;;;5054089;28;20718;-52
2022/03/31 05:17:03;;;;;;;33.87;22.97;;;4.60;99.90;;;;;;5054075;28;20205;-52
2022/03/31 05:19:32;;;;;;;33.13;23.67;;;4.60;99.90;;;;;;5053810;28;20223;-52
2022/03/31 05:22:00;;;;;;;34.13;23.23;;;4.70;99.90;;;;;;5053214;28;20291;-52
2022/03/31 05:24:29;;;;;;;34.50;23.30;;;4.70;99.90;;;;;;5042157;28;20212;-52
2022/03/31 05:26:58;;;;;;;34.67;23.77;;;4.80;99.90;;;;;;5039632;28;20221;-52
2022/03/31 05:29:26;;;;;;;36.67;23.40;;;4.70;99.90;;;;;;5053740;28;20299;-52
2022/03/31 05:31:55;;;;;;;35.93;23.33;;;4.70;99.90;;;;;;5052311;28;20709;-51
2022/03/31 05:34:24;;;;;;;35.50;23.77;;;4.70;99.90;;;;;;5053683;28;20586;-52
2022/03/31 05:36:52;;;;;;;31.90;23.40;;;4.80;99.90;;;;;;5053858;28;20261;-51
2022/03/31 05:39:21;;;;;;;34.97;22.93;;;4.90;99.90;;;;;;5053397;28;20229;-52
2022/03/31 05:41:50;;;;;;;37.53;23.57;;;4.90;99.90;;;;;;5051961;28;20703;-52
2022/03/31 05:44:18;;;;;;;34.27;23.70;;;4.90;99.90;;;;;;5053817;28;20265;-51
2022/03/31 05:46:46;;;;;;;33.20;22.57;;;4.90;99.90;;;;;;5053313;28;20824;-52
2022/03/31 05:49:14;;;;;;;29.47;21.73;;;5.00;99.90;;;;;;5053814;28;20225;-52
2022/03/31 05:51:43;;;;;;;32.53;23.30;;;5.00;99.90;;;;;;5033616;28;20590;-51
2022/03/31 05:54:11;;;;;;;34.30;23.20;;;5.00;99.90;;;;;;5033759;28;20370;-52
2022/03/31 05:56:39;;;;;;;32.70;22.70;;;5.00;99.90;;;;;;5047060;28;20674;-52
2022/03/31 05:59:09;;;;;;;34.40;23.03;;;5.00;99.90;;;;;;5053174;28;20229;-52
2022/03/31 06:01:37;;;;;;;32.03;20.63;;;5.10;99.90;;;;;;5053268;28;20239;-52
2022/03/31 06:04:05;;;;;;;31.83;22.03;;;5.10;99.90;;;;;;5052605;28;20826;-52
2022/03/31 06:06:33;;;;;;;32.13;22.83;;;5.10;99.90;;;;;;5053229;28;20204;-51
2022/03/31 06:09:01;;;;;;;35.43;23.70;;;5.10;99.90;;;;;;5053049;28;20267;-52
2022/03/31 06:11:30;;;;;;;32.73;22.17;;;5.10;99.90;;;;;;5053184;28;20213;-51
2022/03/31 06:13:58;;;;;;;33.70;22.73;;;5.20;99.90;;;;;;5052012;28;20206;-52
2022/03/31 06:16:28;;;;;;;34.17;22.20;;;5.20;99.90;;;;;;5044314;28;20206;-52
2022/03/31 06:18:56;;;;;;;30.00;22.30;;;5.20;99.90;;;;;;5052634;28;20642;-52
2022/03/31 06:21:24;;;;;;;32.47;23.20;;;5.20;99.90;;;;;;5052615;28;20202;-52
2022/03/31 06:23:52;;;;;;;30.33;22.30;;;5.20;99.90;;;;;;5051682;28;20205;-52
2022/03/31 06:26:21;;;;;;;33.27;23.00;;;5.30;99.90;;;;;;5051596;28;20559;-52
2022/03/31 06:28:49;;;;;;;33.97;22.87;;;5.30;99.90;;;;;;5052698;28;20286;-52
2022/03/31 06:31:17;;;;;;;31.60;23.00;;;5.30;99.90;;;;;;5051702;28;20269;-52
2022/03/31 06:33:47;;;;;;;33.10;22.70;;;5.30;99.90;;;;;;5051950;28;20801;-52
2022/03/31 06:36:15;;;;;;;33.67;23.33;;;5.30;99.90;;;;;;5052748;28;20213;-52
2022/03/31 06:38:43;;;;;;;32.73;23.63;;;5.40;99.90;;;;;;5052411;28;20295;-52
2022/03/31 06:41:14;;;;;;;34.30;23.17;;;5.40;99.90;;;;;;5052463;28;20253;-52
2022/03/31 06:43:44;;;;;;;35.00;24.23;;;5.50;99.90;;;;;;5051953;28;20220;-53
2022/03/31 06:46:13;;;;;;;33.93;23.83;;;5.50;99.90;;;;;;5052146;28;20206;-52
2022/03/31 06:48:46;;;;;;;34.13;23.00;;;5.40;99.90;;;;;;5052416;28;20226;-52
2022/03/31 06:51:17;;;;;;;35.00;22.97;;;5.40;99.90;;;;;;5052367;28;20205;-53
2022/03/31 06:53:46;;;;;;;35.43;24.60;;;5.40;99.90;;;;;;5051125;28;20292;-52
2022/03/31 06:56:16;;;;;;;34.33;23.03;;;5.40;99.90;;;;;;5052638;28;20648;-52
2022/03/31 06:58:45;;;;;;;36.43;24.40;;;5.40;99.90;;;;;;5051719;28;20221;-52
2022/03/31 07:01:13;;;;;;;34.80;23.97;;;5.50;99.90;;;;;;5051838;28;20211;-52
2022/03/31 07:03:42;;;;;;;33.83;23.67;;;5.60;99.90;;;;;;5051494;28;20205;-52
2022/03/31 07:06:10;;;;;;;37.30;24.60;;;5.70;99.90;;;;;;5051876;28;20242;-53
2022/03/31 07:08:40;;;;;;;33.27;23.47;;;5.70;99.90;;;;;;5052018;28;20225;-52
2022/03/31 07:11:09;;;;;;;34.83;24.00;;;5.70;99.90;;;;;;5051630;28;20209;-52
2022/03/31 07:13:37;;;;;;;33.93;25.33;;;5.70;99.90;;;;;;5051700;28;20212;-52
2022/03/31 07:16:06;;;;;;;33.03;23.23;;;5.70;99.90;;;;;;5051224;28;20285;-52
2022/03/31 07:18:34;;;;;;;34.37;24.33;;;5.80;99.90;;;;;;5031944;28;20245;-52
2022/03/31 07:21:02;;;;;;;35.93;24.30;;;5.80;99.90;;;;;;5031841;28;20260;-52
2022/03/31 07:23:30;;;;;;;33.73;24.07;;;5.80;99.90;;;;;;5031112;28;20209;-52
2022/03/31 07:26:00;;;;;;;34.47;23.53;;;5.80;99.90;;;;;;5032071;28;20305;-52
2022/03/31 07:28:28;;;;;;;30.77;22.57;;;5.80;99.90;;;;;;5031412;28;20268;-52
2022/03/31 07:30:57;;;;;;;32.90;21.73;;;5.90;99.90;;;;;;5032770;28;20205;-52
2022/03/31 07:33:25;;;;;;;32.57;23.07;;;5.90;99.90;;;;;;5030334;28;20217;-52
2022/03/31 07:35:53;;;;;;;33.27;21.70;;;5.90;99.90;;;;;;5031376;28;20854;-52
2022/03/31 07:38:22;;;;;;;31.77;21.43;;;5.90;99.90;;;;;;5031094;28;20217;-51
2022/03/31 07:40:51;;;;;;;31.53;22.93;;;5.90;99.90;;;;;;5031031;28;20209;-52
2022/03/31 07:43:20;;;;;;;32.17;21.27;;;5.90;99.90;;;;;;5030640;28;20260;-52
2022/03/31 07:45:49;;;;;;;28.67;21.63;;;5.90;99.90;;;;;;5030231;28;20283;-52
2022/03/31 07:48:18;;;;;;;29.23;21.50;;;6.00;99.90;;;;;;5031012;28;20252;-52
2022/03/31 07:50:46;;;;;;;29.37;20.40;;;5.90;99.90;;;;;;5031228;28;20202;-52
2022/03/31 07:53:17;;;;;;;30.03;21.23;;;5.90;99.90;;;;;;5030564;28;20250;-52
2022/03/31 07:55:45;;;;;;;31.47;21.10;;;6.00;99.90;;;;;;5031453;28;20581;-52
2022/03/31 07:58:13;;;;;;;29.90;20.70;;;6.00;99.90;;;;;;5030657;28;20221;-52
2022/03/31 08:00:43;;;;;;;30.77;19.60;;;6.00;99.90;;;;;;5050341;28;20226;-53
2022/03/31 08:03:11;;;;;;;30.50;19.63;;;6.10;99.90;;;;;;5050517;28;20214;-52
2022/03/31 08:05:40;;;;;;;31.87;20.53;;;6.10;99.90;;;;;;5050863;28;20202;-52
2022/03/31 08:08:08;;;;;;;26.43;20.47;;;6.10;99.90;;;;;;5048886;28;20210;-50
2022/03/31 08:10:36;;;;;;;26.87;20.57;;;6.10;99.90;;;;;;5050636;28;20634;-50
2022/03/31 08:13:06;;;;;;;28.90;19.67;;;6.00;99.90;;;;;;5049840;28;20620;-53
2022/03/31 08:15:35;;;;;;;27.33;19.00;;;6.10;99.90;;;;;;5050632;28;20678;-52
2022/03/31 08:18:05;;;;;;;26.83;19.20;;;6.10;99.90;;;;;;5051221;28;20697;-50
2022/03/31 08:20:34;;;;;;;25.43;18.33;;;6.20;99.90;;;;;;5050057;28;20603;-53
2022/03/31 08:23:02;;;;;;;24.70;17.87;;;6.30;99.90;;;;;;5049638;28;20251;-53
2022/03/31 08:25:30;;;;;;;25.37;18.60;;;6.30;99.90;;;;;;5050621;28;20206;-53
2022/03/31 08:27:58;;;;;;;24.37;18.23;;;6.30;99.90;;;;;;5050287;28;20573;-52
2022/03/31 08:30:30;;;;;;;24.33;18.37;;;6.30;99.90;;;;;;5041171;28;20574;-53
2022/03/31 08:32:58;;;;;;;26.43;18.23;;;6.20;99.90;;;;;;5029951;28;20444;-52
2022/03/31 08:35:28;;;;;;;24.13;17.93;;;6.30;99.90;;;;;;5030085;28;20698;-52
2022/03/31 08:37:56;;;;;;;24.60;16.77;;;6.40;99.90;;;;;;5030754;28;20634;-52
2022/03/31 08:40:24;;;;;;;24.57;17.43;;;6.40;99.90;;;;;;5030349;28;20231;-52
2022/03/31 08:42:55;;;;;;;27.43;18.27;;;6.40;99.90;;;;;;5030077;28;20698;-53
2022/03/31 08:45:23;;;;;;;23.90;18.03;;;6.40;99.90;;;;;;5028579;28;20249;-53
2022/03/31 08:47:53;;;;;;;25.07;18.47;;;6.40;99.90;;;;;;5030516;28;20252;-53
2022/03/31 08:50:23;;;;;;;24.57;16.77;;;6.40;99.90;;;;;;5037963;28;20219;-53
2022/03/31 08:52:53;;;;;;;26.00;17.80;;;6.60;99.90;;;;;;5049956;28;20246;-52
2022/03/31 08:55:21;;;;;;;26.97;18.90;;;6.50;99.90;;;;;;5050208;28;20648;-52
2022/03/31 08:57:51;;;;;;;24.33;16.97;;;6.50;99.90;;;;;;5050181;28;20214;-52
2022/03/31 09:00:21;;;;;;;26.77;17.07;;;6.60;99.90;;;;;;5047050;28;20221;-52
2022/03/31 09:02:55;;;;;;;24.30;17.60;;;6.70;99.90;;;;;;5049588;28;20258;-53
2022/03/31 09:05:23;;;;;;;25.67;17.53;;;6.80;99.90;;;;;;5050028;28;20680;-53
2022/03/31 09:07:58;;;;;;;29.57;20.30;;;6.80;99.90;;;;;;5051432;28;20619;-53
2022/03/31 09:10:31;;;;;;;28.77;18.13;;;6.80;99.90;;;;;;5034200;28;20230;-53
2022/03/31 09:13:01;;;;;;;26.20;18.17;;;6.90;99.90;;;;;;5033623;28;20281;-53
2022/03/31 09:15:35;;;;;;;25.17;17.97;;;6.90;99.90;;;;;;5033312;28;20229;-53
2022/03/31 09:18:03;;;;;;;26.63;18.63;;;7.00;99.90;;;;;;5033421;28;20301;-53
2022/03/31 09:20:38;;;;;;;27.30;18.90;;;7.20;99.90;;;;;;5033649;28;20232;-53
2022/03/31 09:23:14;;;;;;;26.77;19.57;;;7.20;99.90;;;;;;5033483;28;20748;-52
2022/03/31 09:25:43;;;;;;;28.60;18.40;;;7.20;99.90;;;;;;5033923;28;20200;-53
2022/03/31 09:28:16;;;;;;;29.63;19.93;;;7.10;99.90;;;;;;5033573;28;20964;-52
2022/03/31 09:30:49;;;;;;;30.70;19.43;;;7.10;99.90;;;;;;5035348;28;20220;-53
2022/03/31 09:33:30;;;;;;;33.50;21.37;;;7.00;99.90;;;;;;5033291;28;20585;-52
2022/03/31 09:36:00;;;;;;;31.43;21.40;;;6.90;99.90;;;;;;5033997;28;20209;-53
2022/03/31 09:38:32;;;;;;;34.87;22.13;;;7.00;99.90;;;;;;5033327;28;20242;-53
2022/03/31 09:41:01;;;;;;;33.20;22.47;;;7.00;99.90;;;;;;5032033;28;20230;-53
2022/03/31 09:43:38;;;;;;;34.17;23.47;;;7.00;99.90;;;;;;5032677;28;20217;-53
2022/03/31 09:46:17;;;;;;;34.10;23.40;;;7.10;99.90;;;;;;5033682;28;20255;-53
2022/03/31 09:48:48;;;;;;;37.93;23.37;;;7.20;99.90;;;;;;5033247;28;20226;-52
2022/03/31 09:51:16;;;;;;;37.87;25.20;;;7.20;99.90;;;;;;5033678;28;20255;-52
2022/03/31 09:53:48;;;;;;;34.07;21.63;;;7.10;99.90;;;;;;5032741;28;20862;-53
2022/03/31 09:56:18;;;;;;;34.23;22.53;;;7.10;99.90;;;;;;5032240;28;20266;-52
2022/03/31 09:58:48;;;;;;;37.57;22.53;;;7.20;99.90;;;;;;5041878;28;20785;-52
2022/03/31 10:01:17;;;;;;;34.60;23.50;;;7.10;99.90;;;;;;5036604;28;20222;-52
2022/03/31 10:03:46;;;;;;;32.63;22.47;;;7.00;99.90;;;;;;5050667;28;20218;-52
2022/03/31 10:06:14;;;;;;;36.77;23.23;;;7.00;99.90;;;;;;5052520;28;20674;-51
2022/03/31 10:08:44;;;;;;;36.50;22.97;;;7.00;99.90;;;;;;5053048;28;20223;-50
2022/03/31 10:11:20;;;;;;;33.90;23.00;;;7.00;99.90;;;;;;5051446;28;20202;-50
2022/03/31 10:14:14;;;;;;;39.87;24.27;;;7.00;99.90;;;;;;5052844;28;20209;-50
2022/03/31 10:16:47;;;;;;;35.23;23.40;;;7.10;99.90;;;;;;5052386;28;20205;-50
2022/03/31 10:19:27;;;;;;;36.90;22.33;;;7.20;99.90;;;;;;5050956;28;20850;-50
2022/03/31 10:22:01;;;;;;;38.67;24.43;;;7.20;99.90;;;;;;5040331;28;20230;-50
2022/03/31 10:24:45;;;;;;;41.47;24.00;;;7.30;99.90;;;;;;5032027;28;20212;-50
2022/03/31 10:27:28;;;;;;;38.80;24.50;;;7.50;99.90;;;;;;5032172;28;20268;-51
2022/03/31 10:30:08;;;;;;;41.40;25.50;;;7.60;99.90;;;;;;5033640;28;20275;-51
2022/03/31 10:32:37;;;;;;;39.63;25.23;;;7.60;99.90;;;;;;5030998;28;20213;-50
2022/03/31 10:35:06;;;;;;;41.10;26.80;;;7.80;99.90;;;;;;5032185;28;20213;-52
2022/03/31 10:37:37;;;;;;;41.07;26.43;;;7.90;99.90;;;;;;5032305;28;20244;-52
2022/03/31 10:40:09;;;;;;;42.80;25.90;;;7.90;99.90;;;;;;5031521;28;20648;-53
2022/03/31 10:42:39;;;;;;;41.90;27.40;;;7.90;99.90;;;;;;5031543;28;20214;-53
2022/03/31 10:45:12;;;;;;;40.17;26.60;;;7.90;99.90;;;;;;5036339;28;20232;-52
2022/03/31 10:47:43;;;;;;;46.07;30.10;;;7.90;99.90;;;;;;5051989;28;20208;-52
2022/03/31 10:50:23;;;;;;;43.27;27.80;;;7.90;99.90;;;;;;5051467;28;20228;-54
2022/03/31 10:52:59;;;;;;;42.33;28.13;;;8.00;99.90;;;;;;5050872;28;20633;-53
2022/03/31 10:55:36;;;;;;;44.50;27.70;;;7.90;99.90;;;;;;5052033;28;20199;-52
2022/03/31 10:58:07;;;;;;;43.27;28.30;;;7.80;99.90;;;;;;5051463;28;20202;-53
2022/03/31 11:00:36;;;;;;;40.50;26.93;;;7.80;99.90;;;;;;5047971;28;20225;-52
2022/03/31 11:03:05;;;;;;;43.30;27.30;;;7.70;99.90;;;;;;5050933;28;20305;-53
2022/03/31 11:05:45;;;;;;;67.93;43.67;;;7.80;99.90;;;;;;5051348;28;20231;-53
2022/03/31 11:08:17;;;;;;;46.23;30.40;;;7.70;99.90;;;;;;5051789;28;20198;-52
2022/03/31 11:10:47;;;;;;;52.57;32.53;;;7.70;99.90;;;;;;5050000;28;20201;-53
2022/03/31 11:13:18;;;;;;;48.30;28.93;;;7.70;99.90;;;;;;5051075;28;20209;-52
2022/03/31 11:15:55;;;;;;;47.57;30.40;;;7.70;99.90;;;;;;5050949;28;20206;-52
2022/03/31 11:18:24;;;;;;;44.10;29.17;;;7.70;99.90;;;;;;5051438;28;20255;-52
2022/03/31 11:20:56;;;;;;;43.30;28.77;;;7.70;99.90;;;;;;5051062;28;20217;-53
2022/03/31 11:23:25;;;;;;;44.97;28.40;;;7.80;99.90;;;;;;5050879;28;20213;-52
2022/03/31 11:25:54;;;;;;;46.43;29.47;;;7.80;99.90;;;;;;5051415;28;20205;-53
2022/03/31 11:28:24;;;;;;;43.90;29.23;;;7.80;99.90;;;;;;5049987;28;20267;-53
2022/03/31 11:30:54;;;;;;;41.50;29.00;;;7.80;99.90;;;;;;5037598;28;20283;-51
2022/03/31 11:33:22;;;;;;;47.00;29.40;;;7.80;99.90;;;;;;5044514;28;20220;-50
2022/03/31 11:35:52;;;;;;;43.07;28.83;;;7.90;99.90;;;;;;5050521;28;20190;-51
2022/03/31 11:38:21;;;;;;;44.47;28.57;;;8.00;99.90;;;;;;5051022;28;20205;-50
2022/03/31 11:40:50;;;;;;;41.03;29.13;;;8.10;99.90;;;;;;5051198;28;20271;-54
2022/03/31 11:43:20;;;;;;;42.40;29.33;;;8.20;99.90;;;;;;5044680;28;20264;-51
2022/03/31 11:45:51;;;;;;;40.90;29.33;;;8.20;99.90;;;;;;5030847;28;20349;-50
2022/03/31 11:48:31;;;;;;;37.47;26.13;;;8.20;99.90;;;;;;5030681;28;20273;-50
2022/03/31 11:51:01;;;;;;;38.73;28.10;;;8.20;99.90;;;;;;5030896;28;20198;-50
2022/03/31 11:53:38;;;;;;;41.77;28.40;;;8.20;99.90;;;;;;5029896;28;20201;-50
2022/03/31 11:56:09;;;;;;;41.40;28.27;;;8.30;99.90;;;;;;5031272;28;20291;-50
2022/03/31 11:58:46;;;;;;;39.70;26.97;;;8.30;99.90;;;;;;5033037;28;20230;-50
2022/03/31 12:01:16;;;;;;;41.20;28.50;;;8.10;99.90;;;;;;5030222;28;20272;-50
2022/03/31 12:03:45;;;;;;;36.10;26.57;;;8.10;99.90;;;;;;5030358;28;20206;-50
2022/03/31 12:06:15;;;;;;;38.40;26.27;;;8.00;99.90;;;;;;5030524;28;20658;-53
2022/03/31 12:08:44;;;;;;;35.27;25.20;;;7.90;99.90;;;;;;5037480;28;20274;-52
2022/03/31 12:11:14;;;;;;;38.80;26.10;;;7.80;99.90;;;;;;5050563;28;20210;-52
2022/03/31 12:13:51;;;;;;;37.60;26.13;;;7.80;99.90;;;;;;5049850;28;20216;-53
2022/03/31 12:16:22;;;;;;;32.00;23.30;;;7.60;99.90;;;;;;5049910;28;20284;-53
2022/03/31 12:18:55;;;;;;;38.63;26.33;;;7.50;99.90;;;;;;5050152;28;20776;-52
2022/03/31 12:21:25;;;;;;;35.67;25.17;;;7.40;99.90;;;;;;5050596;28;20225;-53
2022/03/31 12:23:53;;;;;;;36.73;26.87;;;7.40;99.90;;;;;;5049422;28;20217;-52
2022/03/31 12:26:41;;;;;;;37.30;24.23;;;7.40;99.90;;;;;;5050079;28;20201;-53
2022/03/31 12:29:17;;;;;;;35.00;25.10;;;7.40;99.90;;;;;;5050089;28;20225;-53
2022/03/31 12:31:48;;;;;;;37.90;26.03;;;7.40;99.90;;;;;;5048923;28;20288;-52
2022/03/31 12:34:16;;;;;;;35.17;25.27;;;7.30;99.90;;;;;;5050327;28;20213;-52
2022/03/31 12:36:44;;;;;;;35.17;25.10;;;7.30;99.90;;;;;;5050359;28;20212;-53
2022/03/31 12:39:15;;;;;;;34.63;24.67;;;7.30;99.90;;;;;;5049966;28;20768;-52
2022/03/31 12:41:43;;;;;;;35.33;25.00;;;7.20;99.90;;;;;;5049672;28;20210;-52
2022/03/31 12:44:15;;;;;;;34.90;24.10;;;7.10;99.90;;;;;;5053333;28;20201;-52
2022/03/31 12:46:52;;;;;;;36.23;25.70;;;7.10;99.90;;;;;;5053257;28;20213;-53
2022/03/31 12:49:22;;;;;;;38.83;24.87;;;7.10;99.90;;;;;;5054175;28;20225;-52
2022/03/31 12:51:52;;;;;;;36.70;25.40;;;7.10;99.90;;;;;;5046376;28;20205;-53